Time;durP1;ratioP1;P1;durP2;ratioP2;P2;SDS_P1;SDS_P2;PMS_P1;PMS_P2;Temp;Humidity;BMP_temperature;BMP_pressure;BME280_temperature;BME280_humidity;BME280_pressure;Samples;Min_cycle;Max_cycle;Signal;HPM_P1;HPM_P2
2023/05/20 00:00:38;;;;;;;12.57;4.38;;;;;;;;;;4967530;28;98965;-76
2023/05/20 00:03:06;;;;;;;17.45;3.75;;;;;;;;;;4967968;28;99648;-77
2023/05/20 00:05:33;;;;;;;5.72;3.10;;;;;;;;;;4967279;28;98903;-76
2023/05/20 00:07:59;;;;;;;6.60;3.75;;;;;;;;;;4968134;28;98306;-75
2023/05/20 00:10:26;;;;;;;7.57;3.97;;;;;;;;;;4968006;28;98480;-76
2023/05/20 00:12:52;;;;;;;14.23;4.55;;;;;;;;;;4970347;28;99083;-75
2023/05/20 00:15:19;;;;;;;6.72;3.92;;;;;;;;;;4969439;28;99518;-76
2023/05/20 00:17:45;;;;;;;8.68;3.97;;;;;;;;;;4967657;28;99046;-75
2023/05/20 00:20:13;;;;;;;8.38;4.13;;;;;;;;;;4967888;28;98301;-76
2023/05/20 00:22:39;;;;;;;19.15;4.32;;;;;;;;;;4967629;28;99392;-76
2023/05/20 00:25:06;;;;;;;9.55;4.70;;;;;;;;;;4968475;28;100013;-76
2023/05/20 00:27:32;;;;;;;9.80;5.38;;;;;;;;;;4966330;28;99167;-77
2023/05/20 00:29:59;;;;;;;9.82;4.50;;;;;;;;;;4961513;28;99911;-75
2023/05/20 00:32:25;;;;;;;11.98;4.50;;;;;;;;;;4967753;28;98949;-76
2023/05/20 00:34:56;;;;;;;20.73;3.65;;;;;;;;;;4970555;28;98704;-77
2023/05/20 00:37:23;;;;;;;6.60;3.80;;;;;;;;;;4968070;28;99589;-75
2023/05/20 00:39:50;;;;;;;17.27;4.60;;;;;;;;;;4966274;28;98709;-76
2023/05/20 00:42:23;;;;;;;11.23;4.13;;;;;;;;;;4975537;28;98454;-75
2023/05/20 00:44:50;;;;;;;12.43;4.93;;;;;;;;;;4968161;28;98700;-75
2023/05/20 00:47:17;;;;;;;10.90;4.50;;;;;;;;;;4968093;28;98242;-75
2023/05/20 00:49:44;;;;;;;11.88;4.45;;;;;;;;;;4966937;28;99372;-76
2023/05/20 00:52:13;;;;;;;12.02;4.68;;;;;;;;;;4967016;28;98940;-75
2023/05/20 00:54:40;;;;;;;11.07;4.50;;;;;;;;;;4966731;28;98545;-75
2023/05/20 00:57:07;;;;;;;7.65;3.90;;;;;;;;;;4969468;28;100964;-76
2023/05/20 00:59:34;;;;;;;11.13;4.10;;;;;;;;;;4965717;28;98344;-75
2023/05/20 01:02:01;;;;;;;13.30;4.45;;;;;;;;;;4967084;28;98398;-75
2023/05/20 01:04:28;;;;;;;10.30;4.55;;;;;;;;;;4967808;28;100010;-75
2023/05/20 01:06:56;;;;;;;7.13;4.40;;;;;;;;;;4966780;28;98480;-76
2023/05/20 01:09:23;;;;;;;7.80;4.80;;;;;;;;;;4944934;28;99389;-76
2023/05/20 01:11:53;;;;;;;10.68;5.25;;;;;;;;;;4964363;28;99202;-74
2023/05/20 01:14:20;;;;;;;7.75;4.68;;;;;;;;;;4973185;28;98196;-76
2023/05/20 01:16:48;;;;;;;7.32;4.40;;;;;;;;;;4964829;28;101417;-75
2023/05/20 01:19:26;;;;;;;8.43;4.13;;;;;;;;;;4970460;28;99822;-75
2023/05/20 01:21:55;;;;;;;8.35;4.57;;;;;;;;;;4967403;28;98874;-75
2023/05/20 01:24:22;;;;;;;12.00;5.18;;;;;;;;;;4961695;28;99719;-75
2023/05/20 01:26:49;;;;;;;8.75;4.53;;;;;;;;;;4967438;28;98561;-76
2023/05/20 01:29:17;;;;;;;15.60;4.28;;;;;;;;;;4963715;28;98632;-74
2023/05/20 01:31:45;;;;;;;12.88;5.13;;;;;;;;;;4965397;28;100308;-74
2023/05/20 01:34:12;;;;;;;8.68;4.72;;;;;;;;;;4967557;28;98249;-75
2023/05/20 01:36:38;;;;;;;10.82;5.05;;;;;;;;;;4966102;28;101063;-75
2023/05/20 01:39:05;;;;;;;9.07;4.75;;;;;;;;;;4966136;28;98918;-75
2023/05/20 01:41:33;;;;;;;10.43;5.07;;;;;;;;;;4969562;28;98308;-75
2023/05/20 01:44:00;;;;;;;6.80;4.70;;;;;;;;;;4966380;28;99884;-75
2023/05/20 01:46:31;;;;;;;12.13;4.90;;;;;;;;;;4967188;28;99506;-75
2023/05/20 01:48:57;;;;;;;14.27;5.65;;;;;;;;;;4966338;28;100934;-74
2023/05/20 01:51:23;;;;;;;13.00;5.10;;;;;;;;;;4965808;28;100105;-75
2023/05/20 01:53:50;;;;;;;12.75;5.18;;;;;;;;;;4965189;28;99054;-74
2023/05/20 01:56:17;;;;;;;12.70;4.85;;;;;;;;;;4967770;28;99687;-74
2023/05/20 01:58:44;;;;;;;10.60;4.93;;;;;;;;;;4970183;28;98828;-74
2023/05/20 02:01:10;;;;;;;12.60;5.25;;;;;;;;;;4971405;28;98200;-75
2023/05/20 02:03:37;;;;;;;11.10;4.85;;;;;;;;;;4973350;28;99227;-74
2023/05/20 02:06:03;;;;;;;6.35;5.43;;;;;;;;;;4969220;28;98534;-76
2023/05/20 02:08:30;;;;;;;13.95;5.40;;;;;;;;;;4969098;28;99454;-75
2023/05/20 02:10:58;;;;;;;10.63;5.28;;;;;;;;;;4970871;28;98726;-75
2023/05/20 02:13:26;;;;;;;11.68;4.72;;;;;;;;;;4969280;28;98718;-76
2023/05/20 02:15:52;;;;;;;6.30;4.95;;;;;;;;;;4968948;28;101419;-76
2023/05/20 02:18:19;;;;;;;11.25;5.93;;;;;;;;;;4968321;28;99014;-75
2023/05/20 02:20:45;;;;;;;10.55;4.95;;;;;;;;;;4981568;28;98483;-76
2023/05/20 02:23:12;;;;;;;9.82;5.60;;;;;;;;;;4969462;28;98443;-75
2023/05/20 02:25:39;;;;;;;8.30;5.03;;;;;;;;;;4970468;28;98215;-76
2023/05/20 02:28:09;;;;;;;10.05;5.20;;;;;;;;;;4969575;28;98377;-77
2023/05/20 02:30:36;;;;;;;10.70;5.75;;;;;;;;;;4966976;28;99980;-75
2023/05/20 02:33:03;;;;;;;9.35;5.22;;;;;;;;;;4970329;28;98303;-75
2023/05/20 02:35:30;;;;;;;12.00;4.95;;;;;;;;;;4969530;28;98893;-76
2023/05/20 02:37:56;;;;;;;6.40;5.60;;;;;;;;;;4970457;28;98739;-76
2023/05/20 02:40:22;;;;;;;13.77;5.70;;;;;;;;;;4969145;28;98426;-76
2023/05/20 02:42:49;;;;;;;8.43;5.25;;;;;;;;;;4969992;28;98343;-76
2023/05/20 02:45:15;;;;;;;7.90;6.03;;;;;;;;;;4971104;28;99423;-75
2023/05/20 02:47:43;;;;;;;12.82;5.25;;;;;;;;;;4967641;28;98580;-76
2023/05/20 02:50:10;;;;;;;14.75;6.05;;;;;;;;;;4968494;28;98971;-76
2023/05/20 02:52:38;;;;;;;9.18;5.68;;;;;;;;;;4969610;28;98192;-76
2023/05/20 02:55:06;;;;;;;16.35;6.65;;;;;;;;;;4967461;28;98262;-76
2023/05/20 02:57:35;;;;;;;8.45;5.65;;;;;;;;;;4968959;28;100357;-76
2023/05/20 03:00:06;;;;;;;17.45;6.18;;;;;;;;;;4968918;28;98428;-75
2023/05/20 03:02:32;;;;;;;10.45;6.47;;;;;;;;;;4968995;28;98242;-74
2023/05/20 03:04:59;;;;;;;12.30;5.80;;;;;;;;;;4960765;28;98941;-75
2023/05/20 03:07:26;;;;;;;11.38;6.40;;;;;;;;;;4970743;28;98281;-75
2023/05/20 03:09:52;;;;;;;9.18;5.97;;;;;;;;;;4966810;28;101098;-75
2023/05/20 03:12:19;;;;;;;8.82;5.85;;;;;;;;;;4967873;28;99003;-74
2023/05/20 03:14:45;;;;;;;14.35;6.07;;;;;;;;;;4973013;28;98245;-75
2023/05/20 03:17:11;;;;;;;7.68;5.47;;;;;;;;;;4968950;28;98629;-76
2023/05/20 03:19:38;;;;;;;14.57;6.28;;;;;;;;;;4968343;28;98243;-75
2023/05/20 03:22:05;;;;;;;10.55;6.35;;;;;;;;;;4968277;28;100487;-75
2023/05/20 03:24:31;;;;;;;13.43;5.82;;;;;;;;;;4967090;28;101169;-75
2023/05/20 03:26:58;;;;;;;9.80;5.78;;;;;;;;;;4967469;28;98394;-75
2023/05/20 03:29:24;;;;;;;18.13;7.28;;;;;;;;;;4964467;28;100268;-77
2023/05/20 03:31:51;;;;;;;11.00;6.28;;;;;;;;;;4967374;28;98471;-76
2023/05/20 03:34:18;;;;;;;8.07;5.07;;;;;;;;;;4967309;28;100032;-76
2023/05/20 03:36:47;;;;;;;10.45;6.13;;;;;;;;;;4966634;28;101037;-76
2023/05/20 03:39:13;;;;;;;15.32;6.22;;;;;;;;;;4968050;28;98397;-75
2023/05/20 03:41:40;;;;;;;8.18;5.95;;;;;;;;;;4966591;28;100655;-75
2023/05/20 03:44:06;;;;;;;7.05;5.97;;;;;;;;;;4965551;28;100992;-75
2023/05/20 03:46:33;;;;;;;15.85;5.93;;;;;;;;;;4967216;28;100081;-75
2023/05/20 03:49:01;;;;;;;8.23;5.95;;;;;;;;;;4967480;28;98540;-76
2023/05/20 03:51:28;;;;;;;11.50;5.93;;;;;;;;;;4970679;28;98964;-75
2023/05/20 03:54:01;;;;;;;13.85;6.30;;;;;;;;;;4967420;28;100730;-76
2023/05/20 03:56:27;;;;;;;8.32;6.45;;;;;;;;;;4967070;28;99114;-75
2023/05/20 03:58:54;;;;;;;13.18;5.85;;;;;;;;;;4967921;28;98328;-76
2023/05/20 04:01:24;;;;;;;14.05;6.88;;;;;;;;;;4969038;28;98296;-75
2023/05/20 04:03:50;;;;;;;13.85;6.22;;;;;;;;;;4966812;28;101273;-77
2023/05/20 04:06:17;;;;;;;14.10;5.68;;;;;;;;;;4966348;28;98062;-77
2023/05/20 04:08:44;;;;;;;8.38;4.97;;;;;;;;;;4966963;28;101002;-77
2023/05/20 04:11:11;;;;;;;9.48;4.80;;;;;;;;;;4968946;28;98806;-75
2023/05/20 04:13:37;;;;;;;7.45;5.70;;;;;;;;;;4975221;28;98507;-76
2023/05/20 04:16:04;;;;;;;13.45;5.70;;;;;;;;;;4968568;28;101993;-76
2023/05/20 04:18:30;;;;;;;9.43;5.70;;;;;;;;;;4967470;28;98338;-76
2023/05/20 04:20:58;;;;;;;6.70;4.95;;;;;;;;;;4950315;28;101167;-75
2023/05/20 04:23:25;;;;;;;10.93;6.40;;;;;;;;;;4968321;28;98977;-75
2023/05/20 04:25:53;;;;;;;10.48;5.97;;;;;;;;;;4966355;28;98300;-77
2023/05/20 04:28:22;;;;;;;8.98;5.95;;;;;;;;;;4971931;28;100281;-74
2023/05/20 04:30:57;;;;;;;12.90;5.45;;;;;;;;;;4962792;28;98979;-75
2023/05/20 04:33:25;;;;;;;13.48;6.88;;;;;;;;;;4961056;28;98323;-76
2023/05/20 04:35:52;;;;;;;17.23;6.63;;;;;;;;;;4967125;28;101398;-76
2023/05/20 04:38:18;;;;;;;9.38;4.97;;;;;;;;;;4966565;28;98335;-75
2023/05/20 04:40:45;;;;;;;17.15;5.82;;;;;;;;;;4967645;28;98326;-76
2023/05/20 04:43:11;;;;;;;9.98;5.10;;;;;;;;;;4966175;28;101022;-75
2023/05/20 04:45:39;;;;;;;9.93;5.15;;;;;;;;;;4967787;28;99760;-76
2023/05/20 04:48:05;;;;;;;10.95;5.70;;;;;;;;;;4965437;28;99448;-75
2023/05/20 04:50:36;;;;;;;10.82;6.28;;;;;;;;;;4966754;28;100037;-75
2023/05/20 04:53:05;;;;;;;8.88;5.15;;;;;;;;;;4965929;28;99229;-75
2023/05/20 04:55:32;;;;;;;10.95;5.93;;;;;;;;;;4969995;28;98556;-76
2023/05/20 04:58:00;;;;;;;12.40;5.88;;;;;;;;;;4965836;28;98314;-76
2023/05/20 05:00:26;;;;;;;16.98;6.38;;;;;;;;;;4965753;28;100182;-74
2023/05/20 05:02:53;;;;;;;9.75;5.55;;;;;;;;;;4965660;28;101833;-75
2023/05/20 05:05:20;;;;;;;8.68;5.38;;;;;;;;;;4967320;28;99063;-76
2023/05/20 05:07:46;;;;;;;8.15;4.72;;;;;;;;;;4966206;28;98659;-74
2023/05/20 05:10:14;;;;;;;8.48;5.00;;;;;;;;;;4965791;28;100372;-75
2023/05/20 05:12:41;;;;;;;6.28;5.13;;;;;;;;;;4967381;28;98175;-75
2023/05/20 05:15:08;;;;;;;7.10;4.78;;;;;;;;;;4967108;28;99509;-75
2023/05/20 05:17:34;;;;;;;8.68;5.03;;;;;;;;;;4969987;28;98791;-77
2023/05/20 05:20:01;;;;;;;11.85;5.15;;;;;;;;;;4968080;28;98744;-75
2023/05/20 05:22:30;;;;;;;13.02;6.10;;;;;;;;;;4964183;28;101777;-75
2023/05/20 05:24:57;;;;;;;8.77;5.05;;;;;;;;;;4967977;28;98743;-76
2023/05/20 05:27:24;;;;;;;9.32;4.43;;;;;;;;;;4965534;28;99529;-76
2023/05/20 05:29:50;;;;;;;8.65;4.70;;;;;;;;;;4955589;28;98891;-75
2023/05/20 05:32:18;;;;;;;11.40;5.38;;;;;;;;;;4963365;28;98334;-75
2023/05/20 05:34:44;;;;;;;11.32;4.85;;;;;;;;;;4966439;28;100418;-75
2023/05/20 05:37:11;;;;;;;7.53;4.40;;;;;;;;;;4965539;28;101510;-74
2023/05/20 05:39:37;;;;;;;8.60;5.28;;;;;;;;;;4968358;28;98778;-74
2023/05/20 05:42:04;;;;;;;9.27;4.97;;;;;;;;;;4965710;28;98899;-75
2023/05/20 05:44:32;;;;;;;9.30;4.32;;;;;;;;;;4964284;28;98401;-75
2023/05/20 05:46:59;;;;;;;6.28;4.35;;;;;;;;;;4965309;28;100951;-75
2023/05/20 05:49:25;;;;;;;6.75;4.68;;;;;;;;;;4966743;28;100384;-74
2023/05/20 05:51:52;;;;;;;7.07;4.40;;;;;;;;;;4965640;28;98628;-75
2023/05/20 05:54:21;;;;;;;5.60;4.13;;;;;;;;;;4966207;28;101492;-75
2023/05/20 05:56:53;;;;;;;4.97;4.45;;;;;;;;;;4965488;28;100918;-75
2023/05/20 05:59:20;;;;;;;6.43;3.92;;;;;;;;;;4965067;28;98062;-76
2023/05/20 06:01:46;;;;;;;5.57;3.10;;;;;;;;;;4968977;28;100712;-75
2023/05/20 06:04:14;;;;;;;6.25;3.95;;;;;;;;;;4965076;28;98398;-76
2023/05/20 06:06:40;;;;;;;5.95;4.25;;;;;;;;;;4964875;28;100586;-75
2023/05/20 06:09:07;;;;;;;5.90;4.07;;;;;;;;;;4965801;28;101696;-77
2023/05/20 06:11:34;;;;;;;5.78;3.90;;;;;;;;;;4964900;28;98286;-77
2023/05/20 06:14:01;;;;;;;5.57;3.83;;;;;;;;;;4969702;28;98645;-79
2023/05/20 06:16:28;;;;;;;5.47;3.88;;;;;;;;;;4965220;28;99260;-75
2023/05/20 06:18:57;;;;;;;9.13;3.65;;;;;;;;;;4945741;28;98349;-76
2023/05/20 06:21:27;;;;;;;5.80;3.97;;;;;;;;;;4955689;28;98998;-74
2023/05/20 06:23:54;;;;;;;9.60;3.55;;;;;;;;;;4962920;28;98450;-76
2023/05/20 06:26:21;;;;;;;7.95;4.15;;;;;;;;;;4961373;28;99615;-76
2023/05/20 06:28:48;;;;;;;5.82;4.35;;;;;;;;;;4964478;28;101279;-75
2023/05/20 06:31:14;;;;;;;3.83;3.30;;;;;;;;;;4963600;28;98244;-75
2023/05/20 06:33:42;;;;;;;4.55;3.45;;;;;;;;;;4960563;28;100692;-75
2023/05/20 06:36:11;;;;;;;7.10;3.20;;;;;;;;;;4955415;28;101719;-74
2023/05/20 06:38:37;;;;;;;4.53;3.05;;;;;;;;;;4963922;28;99609;-74
2023/05/20 06:41:04;;;;;;;14.63;4.43;;;;;;;;;;4958666;28;100720;-75
2023/05/20 06:43:34;;;;;;;3.85;3.30;;;;;;;;;;4962494;28;99669;-75
2023/05/20 06:46:21;;;;;;;5.22;3.45;;;;;;;;;;4963059;28;98360;-74
2023/05/20 06:48:53;;;;;;;5.75;3.28;;;;;;;;;;4965305;28;99822;-76
2023/05/20 06:51:20;;;;;;;7.32;3.60;;;;;;;;;;4963030;28;98429;-77
2023/05/20 06:53:48;;;;;;;5.60;3.03;;;;;;;;;;4958650;28;99285;-74
2023/05/20 06:56:15;;;;;;;8.82;3.13;;;;;;;;;;4961165;28;101588;-74
2023/05/20 06:58:42;;;;;;;5.25;3.25;;;;;;;;;;4960601;28;99106;-76
2023/05/20 07:01:08;;;;;;;5.20;3.80;;;;;;;;;;4966820;28;98456;-75
2023/05/20 07:03:35;;;;;;;5.90;2.63;;;;;;;;;;4967669;28;102351;-74
2023/05/20 07:06:02;;;;;;;9.77;2.83;;;;;;;;;;4970745;28;98353;-75
2023/05/20 07:08:28;;;;;;;5.40;3.05;;;;;;;;;;4964830;28;99070;-74
2023/05/20 07:10:55;;;;;;;3.38;2.70;;;;;;;;;;4964892;28;98650;-78
2023/05/20 07:13:24;;;;;;;3.30;2.58;;;;;;;;;;4960225;28;101109;-77
2023/05/20 07:15:51;;;;;;;4.20;2.70;;;;;;;;;;4968315;28;98879;-77
2023/05/20 07:18:18;;;;;;;5.75;2.67;;;;;;;;;;4968070;28;98619;-75
2023/05/20 07:20:49;;;;;;;;;;;;;;;;;;4961167;28;100981;-75
2023/05/20 07:23:32;;;;;;;4.68;2.90;;;;;;;;;;4959064;28;101011;-75
2023/05/20 07:25:59;;;;;;;3.00;2.22;;;;;;;;;;4961045;28;99231;-76
2023/05/20 07:28:25;;;;;;;7.63;2.50;;;;;;;;;;4962140;28;99014;-75
2023/05/20 07:30:53;;;;;;;3.03;2.78;;;;;;;;;;4960825;28;98326;-75
2023/05/20 07:33:33;;;;;;;5.95;2.72;;;;;;;;;;4947864;28;101134;-75
2023/05/20 07:36:00;;;;;;;5.70;2.60;;;;;;;;;;4960855;28;98991;-74
2023/05/20 07:38:26;;;;;;;3.33;2.47;;;;;;;;;;4963598;28;98926;-75
2023/05/20 07:40:57;;;;;;;3.67;2.17;;;;;;;;;;4962802;28;98475;-76
2023/05/20 07:43:24;;;;;;;6.43;2.75;;;;;;;;;;4962567;28;101287;-76
2023/05/20 07:45:50;;;;;;;4.97;2.95;;;;;;;;;;4964563;28;99077;-76
2023/05/20 07:48:17;;;;;;;5.82;2.05;;;;;;;;;;4966387;28;99627;-76
2023/05/20 07:50:43;;;;;;;4.25;2.58;;;;;;;;;;4965449;28;98917;-76
2023/05/20 07:53:10;;;;;;;5.57;2.90;;;;;;;;;;4963606;28;99369;-76
2023/05/20 07:55:38;;;;;;;3.75;2.00;;;;;;;;;;4966377;28;101436;-76
2023/05/20 07:58:05;;;;;;;5.35;2.30;;;;;;;;;;4969532;28;98864;-75
2023/05/20 08:00:33;;;;;;;3.97;1.90;;;;;;;;;;4961468;28;99868;-75
2023/05/20 08:03:03;;;;;;;3.45;2.25;;;;;;;;;;4980408;28;101044;-75
2023/05/20 08:05:40;;;;;;;2.70;1.92;;;;;;;;;;4966261;28;98362;-75
2023/05/20 08:08:07;;;;;;;1.50;1.40;;;;;;;;;;4960625;28;98565;-76
2023/05/20 08:10:45;;;;;;;2.15;1.95;;;;;;;;;;4958572;28;102011;-76
2023/05/20 08:13:11;;;;;;;1.63;1.52;;;;;;;;;;4969729;28;98374;-77
2023/05/20 08:15:38;;;;;;;2.67;1.88;;;;;;;;;;4955078;28;101027;-75
2023/05/20 08:18:05;;;;;;;2.15;1.98;;;;;;;;;;4957837;28;98194;-76
2023/05/20 08:20:31;;;;;;;4.97;1.60;;;;;;;;;;4958408;28;100449;-76
2023/05/20 08:22:58;;;;;;;1.83;1.70;;;;;;;;;;4965280;28;98984;-77
2023/05/20 08:25:24;;;;;;;5.80;1.90;;;;;;;;;;4957601;28;98210;-75
2023/05/20 08:27:52;;;;;;;3.80;1.98;;;;;;;;;;4967773;28;98644;-76
2023/05/20 08:30:19;;;;;;;5.28;2.10;;;;;;;;;;4962955;28;101844;-76
2023/05/20 08:32:47;;;;;;;2.38;1.50;;;;;;;;;;4967373;28;99891;-76
2023/05/20 08:35:14;;;;;;;2.78;1.90;;;;;;;;;;4967324;28;100128;-76
2023/05/20 08:37:41;;;;;;;3.92;1.65;;;;;;;;;;4967852;28;98318;-74
2023/05/20 08:40:08;;;;;;;1.98;1.88;;;;;;;;;;4965270;28;99579;-74
2023/05/20 08:42:35;;;;;;;1.63;1.52;;;;;;;;;;4954084;28;99872;-74
2023/05/20 08:45:01;;;;;;;1.40;1.35;;;;;;;;;;4967367;28;98112;-77
2023/05/20 08:47:30;;;;;;;3.33;1.70;;;;;;;;;;4965171;28;100432;-76
2023/05/20 08:49:57;;;;;;;2.53;1.50;;;;;;;;;;4964639;28;98956;-76
2023/05/20 08:52:24;;;;;;;2.80;1.50;;;;;;;;;;4962297;28;98246;-75
2023/05/20 08:54:51;;;;;;;4.55;1.80;;;;;;;;;;4952543;28;99760;-75
2023/05/20 08:57:19;;;;;;;7.90;1.50;;;;;;;;;;4960788;28;98314;-74
2023/05/20 08:59:45;;;;;;;6.70;1.73;;;;;;;;;;4963355;28;98721;-76
2023/05/20 09:02:13;;;;;;;2.05;1.60;;;;;;;;;;4953232;28;99345;-75
2023/05/20 09:04:39;;;;;;;7.25;2.30;;;;;;;;;;4967099;28;98929;-76
2023/05/20 09:07:06;;;;;;;4.25;1.90;;;;;;;;;;4966548;28;99552;-75
2023/05/20 09:09:35;;;;;;;7.57;1.30;;;;;;;;;;4953145;28;98143;-75
2023/05/20 09:12:03;;;;;;;2.10;1.30;;;;;;;;;;4967666;28;98352;-75
2023/05/20 09:14:30;;;;;;;1.95;1.52;;;;;;;;;;4961796;28;99802;-76
2023/05/20 09:16:58;;;;;;;3.25;1.55;;;;;;;;;;4969678;28;98938;-75
2023/05/20 09:19:25;;;;;;;6.28;1.70;;;;;;;;;;4955145;28;98214;-75
2023/05/20 09:21:52;;;;;;;4.40;1.73;;;;;;;;;;4958569;28;99934;-76
2023/05/20 09:24:22;;;;;;;3.08;1.80;;;;;;;;;;4966259;28;98320;-76
2023/05/20 09:26:48;;;;;;;4.00;1.75;;;;;;;;;;4968141;28;99539;-79
2023/05/20 09:29:15;;;;;;;4.07;1.70;;;;;;;;;;4966290;28;100059;-77
2023/05/20 09:31:42;;;;;;;5.43;1.60;;;;;;;;;;4967188;28;98302;-76
2023/05/20 09:34:08;;;;;;;4.78;1.60;;;;;;;;;;4967802;28;98547;-76
2023/05/20 09:36:35;;;;;;;1.35;1.35;;;;;;;;;;4963466;28;99115;-75
2023/05/20 09:39:02;;;;;;;2.15;1.58;;;;;;;;;;4971258;28;98283;-75
2023/05/20 09:41:32;;;;;;;2.85;1.50;;;;;;;;;;4965288;28;99228;-75
2023/05/20 09:43:59;;;;;;;3.60;1.50;;;;;;;;;;4967177;28;98270;-75
2023/05/20 09:46:27;;;;;;;3.40;1.27;;;;;;;;;;4968117;28;99387;-75
2023/05/20 09:48:54;;;;;;;2.60;1.63;;;;;;;;;;4965389;28;100081;-75
2023/05/20 09:51:21;;;;;;;5.50;1.60;;;;;;;;;;4960083;28;98692;-75
2023/05/20 09:53:50;;;;;;;3.97;1.65;;;;;;;;;;4962629;28;99320;-74
2023/05/20 09:56:18;;;;;;;1.75;1.48;;;;;;;;;;4961735;28;99002;-77
2023/05/20 09:58:46;;;;;;;4.03;1.40;;;;;;;;;;4963451;28;98324;-75
2023/05/20 10:01:12;;;;;;;6.90;1.67;;;;;;;;;;4970026;28;99421;-75
2023/05/20 10:03:39;;;;;;;3.35;1.58;;;;;;;;;;4967011;28;98233;-77
2023/05/20 10:06:09;;;;;;;2.28;1.50;;;;;;;;;;4967281;28;98700;-75
2023/05/20 10:08:45;;;;;;;6.88;1.90;;;;;;;;;;4966378;28;99022;-75
2023/05/20 10:11:23;;;;;;;5.13;1.90;;;;;;;;;;4964020;28;98352;-75
2023/05/20 10:14:08;;;;;;;6.50;1.20;;;;;;;;;;4970451;28;98980;-75
2023/05/20 10:16:44;;;;;;;1.33;1.33;;;;;;;;;;4971101;28;99220;-75
2023/05/20 10:19:19;;;;;;;7.85;1.80;;;;;;;;;;4961325;28;101419;-75
2023/05/20 10:22:15;;;;;;;3.30;1.77;;;;;;;;;;4970895;28;99832;-76
2023/05/20 10:24:42;;;;;;;3.13;1.80;;;;;;;;;;4953917;28;100066;-76
2023/05/20 10:27:15;;;;;;;4.38;1.63;;;;;;;;;;4968530;28;99389;-75
2023/05/20 10:29:52;;;;;;;1.80;1.70;;;;;;;;;;4969456;28;100031;-79
2023/05/20 10:32:26;;;;;;;3.70;1.75;;;;;;;;;;4969002;28;98240;-76
2023/05/20 10:34:57;;;;;;;2.75;1.60;;;;;;;;;;4961542;28;99931;-77
2023/05/20 10:37:26;;;;;;;1.95;1.50;;;;;;;;;;4967708;28;101040;-75
2023/05/20 10:40:04;;;;;;;1.50;1.40;;;;;;;;;;4969944;28;98217;-77
2023/05/20 10:42:30;;;;;;;2.53;1.67;;;;;;;;;;4969511;28;98405;-73
2023/05/20 10:44:57;;;;;;;8.00;2.08;;;;;;;;;;4971663;28;99175;-75
2023/05/20 10:47:23;;;;;;;2.75;1.58;;;;;;;;;;4956370;28;98662;-76
2023/05/20 10:49:51;;;;;;;4.55;1.95;;;;;;;;;;4968273;28;100058;-74
2023/05/20 10:52:19;;;;;;;2.03;1.83;;;;;;;;;;4969289;28;98216;-74
2023/05/20 10:54:48;;;;;;;4.05;1.92;;;;;;;;;;4962542;28;99462;-74
2023/05/20 10:57:17;;;;;;;4.80;1.80;;;;;;;;;;4967400;28;100148;-76
2023/05/20 10:59:43;;;;;;;3.15;1.63;;;;;;;;;;4963620;28;99804;-74
2023/05/20 11:02:12;;;;;;;5.60;1.88;;;;;;;;;;4955670;28;99556;-75
2023/05/20 11:04:38;;;;;;;2.55;1.98;;;;;;;;;;4955174;28;98933;-75
2023/05/20 11:07:05;;;;;;;4.57;1.70;;;;;;;;;;4972586;28;99575;-75
2023/05/20 11:09:32;;;;;;;1.67;1.58;;;;;;;;;;4968964;28;99442;-74
2023/05/20 11:11:59;;;;;;;3.95;1.70;;;;;;;;;;4969033;28;98290;-75
2023/05/20 11:14:27;;;;;;;2.55;1.67;;;;;;;;;;4966911;28;98536;-75
2023/05/20 11:16:57;;;;;;;7.30;1.80;;;;;;;;;;4959222;28;99924;-75
2023/05/20 11:19:24;;;;;;;5.00;2.05;;;;;;;;;;4969898;28;98211;-74
2023/05/20 11:21:51;;;;;;;3.78;1.92;;;;;;;;;;4969089;28;99957;-74
2023/05/20 11:24:27;;;;;;;2.45;1.95;;;;;;;;;;4969586;28;99936;-74
2023/05/20 11:26:54;;;;;;;6.20;2.35;;;;;;;;;;4969576;28;98100;-74
2023/05/20 11:29:21;;;;;;;2.70;2.13;;;;;;;;;;4968918;28;99532;-76
2023/05/20 11:31:50;;;;;;;5.25;1.90;;;;;;;;;;4963671;28;99594;-74
2023/05/20 11:34:21;;;;;;;4.07;1.60;;;;;;;;;;4968502;28;99765;-73
2023/05/20 11:36:57;;;;;;;2.38;1.83;;;;;;;;;;4968956;28;100105;-74
2023/05/20 11:39:26;;;;;;;1.77;1.67;;;;;;;;;;4969312;28;98314;-74
2023/05/20 11:41:52;;;;;;;1.95;1.50;;;;;;;;;;4969228;28;100048;-74
2023/05/20 11:44:19;;;;;;;2.08;1.67;;;;;;;;;;4969363;28;99955;-74
2023/05/20 11:46:46;;;;;;;3.67;1.65;;;;;;;;;;4965748;28;101322;-74
2023/05/20 11:49:13;;;;;;;9.30;2.15;;;;;;;;;;4949610;28;99665;-72
2023/05/20 11:51:40;;;;;;;1.98;1.70;;;;;;;;;;4953527;28;100989;-73
2023/05/20 11:54:07;;;;;;;5.65;1.52;;;;;;;;;;4950060;28;99580;-74
2023/05/20 11:56:35;;;;;;;1.60;1.50;;;;;;;;;;4961480;28;99936;-75
2023/05/20 11:59:03;;;;;;;2.35;2.15;;;;;;;;;;4969011;28;98315;-74
2023/05/20 12:01:32;;;;;;;2.47;1.92;;;;;;;;;;4968894;28;98712;-74
2023/05/20 12:03:59;;;;;;;9.80;1.52;;;;;;;;;;4954044;28;100014;-75
2023/05/20 12:06:26;;;;;;;8.05;2.22;;;;;;;;;;4948978;28;98261;-75
2023/05/20 12:08:52;;;;;;;6.35;2.10;;;;;;;;;;4950061;28;98558;-74
2023/05/20 12:11:20;;;;;;;6.00;1.70;;;;;;;;;;4948697;28;99932;-74
2023/05/20 12:13:47;;;;;;;5.43;2.22;;;;;;;;;;4967410;28;98265;-75
2023/05/20 12:16:13;;;;;;;1.63;1.52;;;;;;;;;;4969360;28;99032;-75
2023/05/20 12:18:40;;;;;;;2.33;1.55;;;;;;;;;;4968047;28;98485;-74
2023/05/20 12:21:06;;;;;;;5.75;1.83;;;;;;;;;;4969333;28;99900;-73
2023/05/20 12:23:33;;;;;;;1.88;1.40;;;;;;;;;;4967953;28;99848;-73
2023/05/20 12:25:59;;;;;;;2.03;1.52;;;;;;;;;;4968403;28;98279;-75
2023/05/20 12:28:26;;;;;;;4.85;1.90;;;;;;;;;;4968585;28;100053;-74
2023/05/20 12:30:52;;;;;;;7.47;1.60;;;;;;;;;;4964499;28;99907;-74
2023/05/20 12:33:19;;;;;;;3.13;1.70;;;;;;;;;;4952465;28;102853;-76
2023/05/20 12:35:46;;;;;;;4.80;1.60;;;;;;;;;;4953895;28;99448;-74
2023/05/20 12:38:12;;;;;;;3.58;1.77;;;;;;;;;;4950045;28;98217;-74
2023/05/20 12:40:38;;;;;;;5.90;1.60;;;;;;;;;;4949213;28;98495;-74
2023/05/20 12:43:05;;;;;;;4.00;1.90;;;;;;;;;;4949400;28;100054;-73
2023/05/20 12:45:31;;;;;;;2.83;1.23;;;;;;;;;;4948386;28;98505;-73
2023/05/20 12:47:58;;;;;;;7.88;2.10;;;;;;;;;;4964341;28;99496;-74
2023/05/20 12:50:25;;;;;;;2.08;1.77;;;;;;;;;;4968451;28;99984;-75
2023/05/20 12:52:52;;;;;;;2.78;1.60;;;;;;;;;;4968397;28;98278;-73
2023/05/20 12:55:19;;;;;;;2.28;1.65;;;;;;;;;;4970549;28;100068;-73
2023/05/20 12:57:45;;;;;;;3.42;1.65;;;;;;;;;;4968643;28;98134;-73
2023/05/20 13:00:12;;;;;;;3.92;1.40;;;;;;;;;;4967606;28;98490;-75
2023/05/20 13:02:40;;;;;;;1.50;1.40;;;;;;;;;;4968143;28;99998;-74
2023/05/20 13:05:07;;;;;;;3.42;1.60;;;;;;;;;;4969054;28;98858;-73
2023/05/20 13:07:34;;;;;;;2.45;1.70;;;;;;;;;;4967144;28;99211;-76
2023/05/20 13:10:02;;;;;;;6.68;1.70;;;;;;;;;;4948796;28;98981;-75
2023/05/20 13:12:28;;;;;;;5.03;1.95;;;;;;;;;;4947804;28;98109;-75
2023/05/20 13:14:55;;;;;;;4.30;1.42;;;;;;;;;;4948402;28;99552;-72
2023/05/20 13:17:21;;;;;;;3.35;1.55;;;;;;;;;;4952086;28;99143;-74
2023/05/20 13:19:47;;;;;;;7.03;1.50;;;;;;;;;;4948812;28;99443;-73
2023/05/20 13:22:14;;;;;;;2.97;1.50;;;;;;;;;;4965941;28;99900;-73
2023/05/20 13:24:40;;;;;;;3.55;1.80;;;;;;;;;;4967784;28;98258;-74
2023/05/20 13:27:07;;;;;;;5.35;1.60;;;;;;;;;;4968553;28;99772;-74
2023/05/20 13:29:33;;;;;;;4.50;1.70;;;;;;;;;;4967249;28;100668;-77
2023/05/20 13:32:00;;;;;;;10.75;1.90;;;;;;;;;;4968239;28;98298;-77
2023/05/20 13:34:30;;;;;;;2.13;1.67;;;;;;;;;;4966730;28;99462;-75
2023/05/20 13:36:57;;;;;;;1.77;1.50;;;;;;;;;;4965325;28;100004;-77
2023/05/20 13:39:23;;;;;;;3.53;1.55;;;;;;;;;;4966143;28;98258;-75
2023/05/20 13:41:52;;;;;;;3.67;1.92;;;;;;;;;;4964615;28;99428;-77
2023/05/20 13:44:18;;;;;;;3.42;1.63;;;;;;;;;;4964526;28;98300;-77
2023/05/20 13:46:45;;;;;;;3.42;2.15;;;;;;;;;;4961879;28;99429;-77
2023/05/20 13:49:11;;;;;;;2.53;1.65;;;;;;;;;;4965859;28;99163;-75
2023/05/20 13:51:38;;;;;;;3.53;1.75;;;;;;;;;;4970914;28;98321;-76
2023/05/20 13:54:05;;;;;;;4.95;1.60;;;;;;;;;;4969551;28;100013;-75
2023/05/20 13:56:31;;;;;;;4.93;1.90;;;;;;;;;;4979467;28;99939;-74
2023/05/20 13:58:58;;;;;;;1.63;1.27;;;;;;;;;;4969995;28;100067;-74
2023/05/20 14:01:24;;;;;;;4.72;1.70;;;;;;;;;;4965196;28;98860;-75
2023/05/20 14:03:51;;;;;;;3.05;1.70;;;;;;;;;;4955812;28;98346;-73
2023/05/20 14:06:18;;;;;;;3.50;1.88;;;;;;;;;;4959534;28;99570;-74
2023/05/20 14:08:44;;;;;;;8.05;1.92;;;;;;;;;;4957322;28;99297;-74
2023/05/20 14:11:11;;;;;;;3.85;2.15;;;;;;;;;;4952735;28;98989;-74
2023/05/20 14:13:37;;;;;;;4.47;1.60;;;;;;;;;;4970759;28;98553;-75
2023/05/20 14:16:04;;;;;;;5.63;1.40;;;;;;;;;;4969030;28;100226;-74
2023/05/20 14:18:31;;;;;;;3.28;1.48;;;;;;;;;;4966041;28;98591;-74
2023/05/20 14:20:57;;;;;;;2.17;1.30;;;;;;;;;;4969298;28;99722;-74
2023/05/20 14:23:24;;;;;;;6.63;1.80;;;;;;;;;;4973836;28;100187;-74
2023/05/20 14:25:50;;;;;;;4.55;1.75;;;;;;;;;;4965785;28;99715;-74
2023/05/20 14:28:16;;;;;;;8.95;1.70;;;;;;;;;;4960991;28;100404;-73
2023/05/20 14:30:43;;;;;;;6.20;1.70;;;;;;;;;;4956610;28;98260;-73
2023/05/20 14:33:09;;;;;;;7.70;1.50;;;;;;;;;;4972720;28;98752;-73
2023/05/20 14:35:36;;;;;;;2.75;1.83;;;;;;;;;;4965625;28;99875;-74
2023/05/20 14:38:02;;;;;;;11.00;1.92;;;;;;;;;;4967473;28;98238;-74
2023/05/20 14:40:28;;;;;;;2.80;1.20;;;;;;;;;;4969474;28;99448;-74